sensor_id;sensor_type;location;lat;lon;timestamp;P1;durP1;ratioP1;P2;durP2;ratioP2
34212;SDS011;20477;51.390;8.102;2023-07-20T00:02:27;15.73;;;12.85;;
34212;SDS011;20477;51.390;8.102;2023-07-20T00:04:57;23.75;;;13.68;;
34212;SDS011;20477;51.390;8.102;2023-07-20T00:07:26;15.63;;;13.65;;
34212;SDS011;20477;51.390;8.102;2023-07-20T00:09:55;17.90;;;14.25;;
34212;SDS011;20477;51.390;8.102;2023-07-20T00:12:23;16.00;;;12.55;;
34212;SDS011;20477;51.390;8.102;2023-07-20T00:14:51;18.65;;;14.45;;
34212;SDS011;20477;51.390;8.102;2023-07-20T00:17:20;17.23;;;14.10;;
34212;SDS011;20477;51.390;8.102;2023-07-20T00:19:48;19.13;;;13.43;;
34212;SDS011;20477;51.390;8.102;2023-07-20T00:22:18;18.33;;;13.25;;
34212;SDS011;20477;51.390;8.102;2023-07-20T00:24:46;19.98;;;15.40;;
34212;SDS011;20477;51.390;8.102;2023-07-20T00:27:15;20.15;;;14.48;;
34212;SDS011;20477;51.390;8.102;2023-07-20T00:29:44;20.70;;;14.60;;
34212;SDS011;20477;51.390;8.102;2023-07-20T00:32:12;23.73;;;14.98;;
34212;SDS011;20477;51.390;8.102;2023-07-20T00:34:40;20.77;;;14.85;;
34212;SDS011;20477;51.390;8.102;2023-07-20T00:37:08;20.15;;;14.85;;
34212;SDS011;20477;51.390;8.102;2023-07-20T00:39:38;20.27;;;14.57;;
34212;SDS011;20477;51.390;8.102;2023-07-20T00:42:06;21.92;;;14.88;;
34212;SDS011;20477;51.390;8.102;2023-07-20T00:44:34;20.98;;;15.05;;
34212;SDS011;20477;51.390;8.102;2023-07-20T00:47:02;17.98;;;14.25;;
34212;SDS011;20477;51.390;8.102;2023-07-20T00:49:31;18.80;;;13.50;;
34212;SDS011;20477;51.390;8.102;2023-07-20T00:52:00;16.10;;;12.82;;
34212;SDS011;20477;51.390;8.102;2023-07-20T00:54:29;21.02;;;12.98;;
34212;SDS011;20477;51.390;8.102;2023-07-20T00:56:59;16.75;;;12.93;;
34212;SDS011;20477;51.390;8.102;2023-07-20T00:59:29;16.58;;;12.90;;
34212;SDS011;20477;51.390;8.102;2023-07-20T01:01:57;16.42;;;12.55;;
34212;SDS011;20477;51.390;8.102;2023-07-20T01:04:25;15.32;;;12.88;;
34212;SDS011;20477;51.390;8.102;2023-07-20T01:06:57;16.23;;;13.50;;
34212;SDS011;20477;51.390;8.102;2023-07-20T01:09:29;18.58;;;13.95;;
34212;SDS011;20477;51.390;8.102;2023-07-20T01:12:02;18.83;;;13.65;;
34212;SDS011;20477;51.390;8.102;2023-07-20T01:14:35;17.50;;;13.50;;
34212;SDS011;20477;51.390;8.102;2023-07-20T01:17:03;21.20;;;14.00;;
34212;SDS011;20477;51.390;8.102;2023-07-20T01:19:31;22.55;;;14.25;;
34212;SDS011;20477;51.390;8.102;2023-07-20T01:22:02;18.33;;;14.15;;
34212;SDS011;20477;51.390;8.102;2023-07-20T01:24:40;16.35;;;14.13;;
34212;SDS011;20477;51.390;8.102;2023-07-20T01:27:29;19.90;;;14.40;;
34212;SDS011;20477;51.390;8.102;2023-07-20T01:30:23;18.27;;;14.70;;
34212;SDS011;20477;51.390;8.102;2023-07-20T01:32:58;17.60;;;13.45;;
34212;SDS011;20477;51.390;8.102;2023-07-20T01:35:27;17.98;;;13.50;;
34212;SDS011;20477;51.390;8.102;2023-07-20T01:37:56;18.10;;;13.52;;
34212;SDS011;20477;51.390;8.102;2023-07-20T01:40:25;17.90;;;14.45;;
34212;SDS011;20477;51.390;8.102;2023-07-20T01:42:54;18.02;;;13.43;;
34212;SDS011;20477;51.390;8.102;2023-07-20T01:45:22;16.23;;;14.50;;
34212;SDS011;20477;51.390;8.102;2023-07-20T01:47:51;21.95;;;15.18;;
34212;SDS011;20477;51.390;8.102;2023-07-20T01:50:20;23.38;;;16.08;;
34212;SDS011;20477;51.390;8.102;2023-07-20T01:52:49;22.10;;;14.27;;
34212;SDS011;20477;51.390;8.102;2023-07-20T01:55:17;18.90;;;14.65;;
34212;SDS011;20477;51.390;8.102;2023-07-20T01:57:45;26.35;;;15.55;;
34212;SDS011;20477;51.390;8.102;2023-07-20T02:00:13;26.58;;;15.95;;
34212;SDS011;20477;51.390;8.102;2023-07-20T02:02:42;21.67;;;15.65;;
34212;SDS011;20477;51.390;8.102;2023-07-20T02:05:10;23.02;;;16.52;;
34212;SDS011;20477;51.390;8.102;2023-07-20T02:07:39;21.00;;;16.15;;
34212;SDS011;20477;51.390;8.102;2023-07-20T02:10:08;20.23;;;15.23;;
34212;SDS011;20477;51.390;8.102;2023-07-20T02:12:36;25.42;;;15.57;;
34212;SDS011;20477;51.390;8.102;2023-07-20T02:15:04;22.90;;;15.60;;
34212;SDS011;20477;51.390;8.102;2023-07-20T02:17:34;21.20;;;15.35;;
34212;SDS011;20477;51.390;8.102;2023-07-20T02:20:04;19.90;;;14.30;;
34212;SDS011;20477;51.390;8.102;2023-07-20T02:22:35;26.17;;;15.18;;
34212;SDS011;20477;51.390;8.102;2023-07-20T02:25:05;23.73;;;15.15;;
34212;SDS011;20477;51.390;8.102;2023-07-20T02:27:34;22.95;;;15.23;;
34212;SDS011;20477;51.390;8.102;2023-07-20T02:30:02;26.27;;;15.50;;
34212;SDS011;20477;51.390;8.102;2023-07-20T02:32:32;19.63;;;14.40;;
34212;SDS011;20477;51.390;8.102;2023-07-20T02:35:01;24.58;;;15.18;;
34212;SDS011;20477;51.390;8.102;2023-07-20T02:37:30;24.25;;;16.63;;
34212;SDS011;20477;51.390;8.102;2023-07-20T02:39:58;25.77;;;15.98;;
34212;SDS011;20477;51.390;8.102;2023-07-20T02:42:28;30.15;;;16.55;;
34212;SDS011;20477;51.390;8.102;2023-07-20T02:44:56;27.30;;;16.48;;
34212;SDS011;20477;51.390;8.102;2023-07-20T02:47:24;21.75;;;16.05;;
34212;SDS011;20477;51.390;8.102;2023-07-20T02:49:53;30.08;;;18.55;;
34212;SDS011;20477;51.390;8.102;2023-07-20T02:52:21;27.95;;;16.35;;
34212;SDS011;20477;51.390;8.102;2023-07-20T02:54:49;22.73;;;16.95;;
34212;SDS011;20477;51.390;8.102;2023-07-20T02:57:18;25.63;;;17.13;;
34212;SDS011;20477;51.390;8.102;2023-07-20T02:59:47;25.52;;;17.52;;
34212;SDS011;20477;51.390;8.102;2023-07-20T03:02:15;26.73;;;18.27;;
34212;SDS011;20477;51.390;8.102;2023-07-20T03:04:43;32.50;;;18.52;;
34212;SDS011;20477;51.390;8.102;2023-07-20T03:07:12;26.77;;;17.90;;
34212;SDS011;20477;51.390;8.102;2023-07-20T03:09:40;26.33;;;16.23;;
34212;SDS011;20477;51.390;8.102;2023-07-20T03:12:10;29.85;;;17.38;;
34212;SDS011;20477;51.390;8.102;2023-07-20T03:14:38;26.95;;;18.35;;
34212;SDS011;20477;51.390;8.102;2023-07-20T03:17:07;24.60;;;17.77;;
34212;SDS011;20477;51.390;8.102;2023-07-20T03:19:35;27.40;;;19.30;;
34212;SDS011;20477;51.390;8.102;2023-07-20T03:22:03;27.50;;;19.23;;
34212;SDS011;20477;51.390;8.102;2023-07-20T03:24:32;28.45;;;18.45;;
34212;SDS011;20477;51.390;8.102;2023-07-20T03:27:00;28.80;;;18.20;;
34212;SDS011;20477;51.390;8.102;2023-07-20T03:29:28;29.55;;;18.35;;
34212;SDS011;20477;51.390;8.102;2023-07-20T03:31:57;27.00;;;17.95;;
34212;SDS011;20477;51.390;8.102;2023-07-20T03:34:27;26.48;;;17.50;;
34212;SDS011;20477;51.390;8.102;2023-07-20T03:36:55;25.70;;;17.40;;
34212;SDS011;20477;51.390;8.102;2023-07-20T03:39:24;28.02;;;18.27;;
34212;SDS011;20477;51.390;8.102;2023-07-20T03:41:52;28.13;;;18.45;;
34212;SDS011;20477;51.390;8.102;2023-07-20T03:44:20;24.45;;;17.50;;
34212;SDS011;20477;51.390;8.102;2023-07-20T03:46:48;25.17;;;17.88;;
34212;SDS011;20477;51.390;8.102;2023-07-20T03:49:16;26.52;;;16.90;;
34212;SDS011;20477;51.390;8.102;2023-07-20T03:51:46;21.30;;;15.60;;
34212;SDS011;20477;51.390;8.102;2023-07-20T03:54:14;26.83;;;17.45;;
34212;SDS011;20477;51.390;8.102;2023-07-20T03:56:42;26.90;;;17.17;;
34212;SDS011;20477;51.390;8.102;2023-07-20T03:59:10;26.23;;;17.88;;
34212;SDS011;20477;51.390;8.102;2023-07-20T04:01:39;31.25;;;17.77;;
34212;SDS011;20477;51.390;8.102;2023-07-20T04:04:08;23.88;;;16.73;;
34212;SDS011;20477;51.390;8.102;2023-07-20T04:06:36;28.25;;;17.60;;
34212;SDS011;20477;51.390;8.102;2023-07-20T04:09:06;33.72;;;16.63;;
34212;SDS011;20477;51.390;8.102;2023-07-20T04:11:34;25.92;;;16.33;;
34212;SDS011;20477;51.390;8.102;2023-07-20T04:14:02;27.50;;;15.13;;
34212;SDS011;20477;51.390;8.102;2023-07-20T04:16:30;24.73;;;16.48;;
34212;SDS011;20477;51.390;8.102;2023-07-20T04:18:59;36.58;;;19.55;;
34212;SDS011;20477;51.390;8.102;2023-07-20T04:21:28;27.30;;;17.45;;
34212;SDS011;20477;51.390;8.102;2023-07-20T04:23:56;32.28;;;18.48;;
34212;SDS011;20477;51.390;8.102;2023-07-20T04:26:26;25.45;;;17.65;;
34212;SDS011;20477;51.390;8.102;2023-07-20T04:28:54;26.98;;;17.33;;
34212;SDS011;20477;51.390;8.102;2023-07-20T04:31:22;30.88;;;16.80;;
34212;SDS011;20477;51.390;8.102;2023-07-20T04:33:50;24.30;;;15.05;;
34212;SDS011;20477;51.390;8.102;2023-07-20T04:36:18;24.33;;;14.50;;
34212;SDS011;20477;51.390;8.102;2023-07-20T04:38:47;22.38;;;14.60;;
34212;SDS011;20477;51.390;8.102;2023-07-20T04:41:15;18.50;;;14.60;;
34212;SDS011;20477;51.390;8.102;2023-07-20T04:43:44;20.90;;;13.43;;
34212;SDS011;20477;51.390;8.102;2023-07-20T04:46:13;18.00;;;12.90;;
34212;SDS011;20477;51.390;8.102;2023-07-20T04:48:41;17.92;;;12.43;;
34212;SDS011;20477;51.390;8.102;2023-07-20T04:51:09;18.92;;;12.18;;
34212;SDS011;20477;51.390;8.102;2023-07-20T04:53:38;16.70;;;12.07;;
34212;SDS011;20477;51.390;8.102;2023-07-20T04:56:06;17.35;;;12.00;;
34212;SDS011;20477;51.390;8.102;2023-07-20T04:58:34;18.60;;;11.63;;
34212;SDS011;20477;51.390;8.102;2023-07-20T05:01:03;17.10;;;11.32;;
34212;SDS011;20477;51.390;8.102;2023-07-20T05:03:31;17.35;;;11.07;;
34212;SDS011;20477;51.390;8.102;2023-07-20T05:06:01;18.10;;;11.27;;
34212;SDS011;20477;51.390;8.102;2023-07-20T05:08:29;15.23;;;10.50;;
34212;SDS011;20477;51.390;8.102;2023-07-20T05:10:57;14.82;;;9.55;;
34212;SDS011;20477;51.390;8.102;2023-07-20T05:13:27;10.75;;;9.32;;
34212;SDS011;20477;51.390;8.102;2023-07-20T05:15:55;15.75;;;10.57;;
34212;SDS011;20477;51.390;8.102;2023-07-20T05:18:24;15.32;;;9.48;;
34212;SDS011;20477;51.390;8.102;2023-07-20T05:20:52;11.10;;;8.88;;
34212;SDS011;20477;51.390;8.102;2023-07-20T05:23:21;12.10;;;9.52;;
34212;SDS011;20477;51.390;8.102;2023-07-20T05:25:53;14.40;;;10.30;;
34212;SDS011;20477;51.390;8.102;2023-07-20T05:28:22;14.38;;;11.10;;
34212;SDS011;20477;51.390;8.102;2023-07-20T05:30:50;12.32;;;10.52;;
34212;SDS011;20477;51.390;8.102;2023-07-20T05:33:19;16.63;;;10.77;;
34212;SDS011;20477;51.390;8.102;2023-07-20T05:35:48;13.20;;;11.57;;
34212;SDS011;20477;51.390;8.102;2023-07-20T05:38:16;20.35;;;13.00;;
34212;SDS011;20477;51.390;8.102;2023-07-20T05:40:45;17.02;;;13.05;;
34212;SDS011;20477;51.390;8.102;2023-07-20T05:43:14;17.08;;;12.65;;
34212;SDS011;20477;51.390;8.102;2023-07-20T05:45:43;16.23;;;13.20;;
34212;SDS011;20477;51.390;8.102;2023-07-20T05:48:11;22.10;;;13.85;;
34212;SDS011;20477;51.390;8.102;2023-07-20T05:50:41;20.00;;;14.77;;
34212;SDS011;20477;51.390;8.102;2023-07-20T05:53:12;19.80;;;15.18;;
34212;SDS011;20477;51.390;8.102;2023-07-20T05:55:40;30.15;;;16.75;;
34212;SDS011;20477;51.390;8.102;2023-07-20T05:58:08;33.65;;;16.52;;
34212;SDS011;20477;51.390;8.102;2023-07-20T06:00:37;33.60;;;18.02;;
34212;SDS011;20477;51.390;8.102;2023-07-20T06:03:05;22.58;;;18.02;;
34212;SDS011;20477;51.390;8.102;2023-07-20T06:05:34;44.05;;;16.67;;
34212;SDS011;20477;51.390;8.102;2023-07-20T06:08:02;21.10;;;13.85;;
34212;SDS011;20477;51.390;8.102;2023-07-20T06:10:31;16.75;;;10.95;;
34212;SDS011;20477;51.390;8.102;2023-07-20T06:13:00;12.50;;;9.38;;
34212;SDS011;20477;51.390;8.102;2023-07-20T06:15:30;28.10;;;14.43;;
34212;SDS011;20477;51.390;8.102;2023-07-20T06:18:01;18.73;;;13.15;;
34212;SDS011;20477;51.390;8.102;2023-07-20T06:20:30;18.23;;;13.40;;
34212;SDS011;20477;51.390;8.102;2023-07-20T06:22:58;21.08;;;14.82;;
34212;SDS011;20477;51.390;8.102;2023-07-20T06:25:26;16.60;;;13.27;;
34212;SDS011;20477;51.390;8.102;2023-07-20T06:27:56;19.40;;;13.43;;
34212;SDS011;20477;51.390;8.102;2023-07-20T06:30:24;16.55;;;14.80;;
34212;SDS011;20477;51.390;8.102;2023-07-20T06:32:52;18.88;;;15.15;;
34212;SDS011;20477;51.390;8.102;2023-07-20T06:35:20;23.25;;;15.30;;
34212;SDS011;20477;51.390;8.102;2023-07-20T06:37:48;20.80;;;15.80;;
34212;SDS011;20477;51.390;8.102;2023-07-20T06:40:17;19.58;;;15.60;;
34212;SDS011;20477;51.390;8.102;2023-07-20T06:42:48;15.40;;;12.98;;
34212;SDS011;20477;51.390;8.102;2023-07-20T06:45:20;16.00;;;12.13;;
34212;SDS011;20477;51.390;8.102;2023-07-20T06:47:48;14.38;;;10.70;;
34212;SDS011;20477;51.390;8.102;2023-07-20T06:50:17;14.90;;;10.13;;
34212;SDS011;20477;51.390;8.102;2023-07-20T06:52:45;14.77;;;10.98;;
34212;SDS011;20477;51.390;8.102;2023-07-20T06:55:14;22.83;;;10.00;;
34212;SDS011;20477;51.390;8.102;2023-07-20T06:57:49;9.45;;;8.52;;
34212;SDS011;20477;51.390;8.102;2023-07-20T07:00:18;13.13;;;8.63;;
34212;SDS011;20477;51.390;8.102;2023-07-20T07:02:48;9.25;;;7.75;;
34212;SDS011;20477;51.390;8.102;2023-07-20T07:05:16;9.38;;;6.95;;
34212;SDS011;20477;51.390;8.102;2023-07-20T07:07:47;10.65;;;6.85;;
34212;SDS011;20477;51.390;8.102;2023-07-20T07:10:15;9.85;;;7.45;;
34212;SDS011;20477;51.390;8.102;2023-07-20T07:12:43;11.15;;;7.15;;
34212;SDS011;20477;51.390;8.102;2023-07-20T07:15:11;10.07;;;7.15;;
34212;SDS011;20477;51.390;8.102;2023-07-20T07:17:39;10.10;;;8.25;;
34212;SDS011;20477;51.390;8.102;2023-07-20T07:20:11;10.05;;;9.05;;
34212;SDS011;20477;51.390;8.102;2023-07-20T07:22:47;10.68;;;9.20;;
34212;SDS011;20477;51.390;8.102;2023-07-20T07:25:16;10.70;;;8.85;;
34212;SDS011;20477;51.390;8.102;2023-07-20T07:27:49;11.25;;;10.13;;
34212;SDS011;20477;51.390;8.102;2023-07-20T07:30:17;13.57;;;10.05;;
34212;SDS011;20477;51.390;8.102;2023-07-20T07:32:46;15.00;;;11.57;;
34212;SDS011;20477;51.390;8.102;2023-07-20T07:35:15;14.38;;;11.02;;
34212;SDS011;20477;51.390;8.102;2023-07-20T07:37:43;10.95;;;9.38;;
34212;SDS011;20477;51.390;8.102;2023-07-20T07:40:32;11.32;;;9.73;;
34212;SDS011;20477;51.390;8.102;2023-07-20T07:43:01;10.57;;;9.48;;
34212;SDS011;20477;51.390;8.102;2023-07-20T07:45:30;14.23;;;9.45;;
34212;SDS011;20477;51.390;8.102;2023-07-20T07:47:58;10.25;;;9.18;;
34212;SDS011;20477;51.390;8.102;2023-07-20T07:50:27;9.65;;;8.68;;
34212;SDS011;20477;51.390;8.102;2023-07-20T07:52:56;10.93;;;8.63;;
34212;SDS011;20477;51.390;8.102;2023-07-20T07:55:24;8.20;;;7.50;;
34212;SDS011;20477;51.390;8.102;2023-07-20T07:57:54;8.32;;;7.32;;
34212;SDS011;20477;51.390;8.102;2023-07-20T08:00:22;9.95;;;8.05;;
34212;SDS011;20477;51.390;8.102;2023-07-20T08:02:51;9.82;;;8.20;;
34212;SDS011;20477;51.390;8.102;2023-07-20T08:05:19;9.30;;;8.02;;
34212;SDS011;20477;51.390;8.102;2023-07-20T08:07:49;9.55;;;8.55;;
34212;SDS011;20477;51.390;8.102;2023-07-20T08:10:19;12.02;;;7.47;;
34212;SDS011;20477;51.390;8.102;2023-07-20T08:12:47;8.95;;;7.93;;
34212;SDS011;20477;51.390;8.102;2023-07-20T08:15:15;10.27;;;7.63;;
34212;SDS011;20477;51.390;8.102;2023-07-20T08:17:44;7.70;;;6.95;;
34212;SDS011;20477;51.390;8.102;2023-07-20T08:20:12;8.10;;;5.30;;
34212;SDS011;20477;51.390;8.102;2023-07-20T08:22:42;7.45;;;5.75;;
34212;SDS011;20477;51.390;8.102;2023-07-20T08:25:15;6.25;;;4.97;;
34212;SDS011;20477;51.390;8.102;2023-07-20T08:27:43;5.22;;;4.72;;
34212;SDS011;20477;51.390;8.102;2023-07-20T08:30:12;5.60;;;4.63;;
34212;SDS011;20477;51.390;8.102;2023-07-20T08:32:40;8.00;;;5.03;;
34212;SDS011;20477;51.390;8.102;2023-07-20T08:35:09;5.32;;;4.25;;
34212;SDS011;20477;51.390;8.102;2023-07-20T08:37:37;5.25;;;4.75;;
34212;SDS011;20477;51.390;8.102;2023-07-20T08:40:06;6.65;;;4.60;;
34212;SDS011;20477;51.390;8.102;2023-07-20T08:42:38;4.90;;;4.03;;
34212;SDS011;20477;51.390;8.102;2023-07-20T08:45:07;5.65;;;4.30;;
34212;SDS011;20477;51.390;8.102;2023-07-20T08:47:37;8.18;;;4.55;;
34212;SDS011;20477;51.390;8.102;2023-07-20T08:50:06;5.35;;;4.40;;
34212;SDS011;20477;51.390;8.102;2023-07-20T08:52:35;5.20;;;3.55;;
34212;SDS011;20477;51.390;8.102;2023-07-20T08:55:04;4.85;;;3.70;;
34212;SDS011;20477;51.390;8.102;2023-07-20T08:57:32;4.60;;;4.07;;
34212;SDS011;20477;51.390;8.102;2023-07-20T09:00:03;9.32;;;4.28;;
34212;SDS011;20477;51.390;8.102;2023-07-20T09:02:33;3.80;;;3.45;;
34212;SDS011;20477;51.390;8.102;2023-07-20T09:05:04;5.72;;;3.63;;
34212;SDS011;20477;51.390;8.102;2023-07-20T09:07:32;5.40;;;3.65;;
34212;SDS011;20477;51.390;8.102;2023-07-20T09:10:01;5.32;;;3.40;;
34212;SDS011;20477;51.390;8.102;2023-07-20T09:12:32;4.90;;;3.20;;
34212;SDS011;20477;51.390;8.102;2023-07-20T09:15:04;6.50;;;2.25;;
34212;SDS011;20477;51.390;8.102;2023-07-20T09:17:33;4.72;;;3.03;;
34212;SDS011;20477;51.390;8.102;2023-07-20T09:20:03;11.80;;;3.03;;
34212;SDS011;20477;51.390;8.102;2023-07-20T09:22:34;3.25;;;2.90;;
34212;SDS011;20477;51.390;8.102;2023-07-20T09:25:05;3.05;;;2.55;;
34212;SDS011;20477;51.390;8.102;2023-07-20T09:27:35;3.40;;;2.95;;
34212;SDS011;20477;51.390;8.102;2023-07-20T09:30:06;5.85;;;2.65;;
34212;SDS011;20477;51.390;8.102;2023-07-20T09:32:38;5.47;;;3.42;;
34212;SDS011;20477;51.390;8.102;2023-07-20T09:35:20;3.40;;;3.00;;
34212;SDS011;20477;51.390;8.102;2023-07-20T09:37:53;4.00;;;3.25;;
34212;SDS011;20477;51.390;8.102;2023-07-20T09:40:26;4.10;;;2.95;;
34212;SDS011;20477;51.390;8.102;2023-07-20T09:42:58;9.13;;;3.45;;
34212;SDS011;20477;51.390;8.102;2023-07-20T09:45:31;4.28;;;2.60;;
34212;SDS011;20477;51.390;8.102;2023-07-20T09:48:04;2.85;;;2.58;;
34212;SDS011;20477;51.390;8.102;2023-07-20T09:50:39;2.75;;;2.55;;
34212;SDS011;20477;51.390;8.102;2023-07-20T09:53:09;4.57;;;2.95;;
34212;SDS011;20477;51.390;8.102;2023-07-20T09:55:40;2.85;;;2.40;;
34212;SDS011;20477;51.390;8.102;2023-07-20T09:58:09;5.13;;;2.50;;
34212;SDS011;20477;51.390;8.102;2023-07-20T10:00:39;2.50;;;2.30;;
34212;SDS011;20477;51.390;8.102;2023-07-20T10:03:13;2.53;;;2.33;;
34212;SDS011;20477;51.390;8.102;2023-07-20T10:05:46;3.55;;;2.10;;
34212;SDS011;20477;51.390;8.102;2023-07-20T10:08:16;4.18;;;2.72;;
34212;SDS011;20477;51.390;8.102;2023-07-20T10:13:18;2.53;;;2.30;;
34212;SDS011;20477;51.390;8.102;2023-07-20T10:15:50;6.70;;;2.30;;
34212;SDS011;20477;51.390;8.102;2023-07-20T10:18:20;2.17;;;2.08;;
34212;SDS011;20477;51.390;8.102;2023-07-20T10:20:54;3.55;;;2.08;;
34212;SDS011;20477;51.390;8.102;2023-07-20T10:23:27;2.08;;;1.92;;
34212;SDS011;20477;51.390;8.102;2023-07-20T10:25:57;3.13;;;2.47;;
34212;SDS011;20477;51.390;8.102;2023-07-20T10:28:26;2.67;;;2.08;;
34212;SDS011;20477;51.390;8.102;2023-07-20T10:30:56;2.20;;;2.00;;
34212;SDS011;20477;51.390;8.102;2023-07-20T10:33:24;2.58;;;2.15;;
34212;SDS011;20477;51.390;8.102;2023-07-20T10:35:54;2.97;;;2.33;;
34212;SDS011;20477;51.390;8.102;2023-07-20T10:38:38;3.67;;;2.63;;
34212;SDS011;20477;51.390;8.102;2023-07-20T10:41:16;4.78;;;2.47;;
34212;SDS011;20477;51.390;8.102;2023-07-20T10:43:46;4.72;;;2.03;;
34212;SDS011;20477;51.390;8.102;2023-07-20T10:46:16;5.03;;;1.90;;
34212;SDS011;20477;51.390;8.102;2023-07-20T10:49:02;2.10;;;1.70;;
34212;SDS011;20477;51.390;8.102;2023-07-20T10:51:38;2.03;;;1.75;;
34212;SDS011;20477;51.390;8.102;2023-07-20T10:54:33;2.30;;;1.63;;
34212;SDS011;20477;51.390;8.102;2023-07-20T10:57:23;4.65;;;1.65;;
34212;SDS011;20477;51.390;8.102;2023-07-20T11:00:06;3.45;;;1.20;;
34212;SDS011;20477;51.390;8.102;2023-07-20T11:02:46;2.38;;;1.55;;
34212;SDS011;20477;51.390;8.102;2023-07-20T11:05:32;2.38;;;1.30;;
34212;SDS011;20477;51.390;8.102;2023-07-20T11:08:03;1.85;;;1.42;;
34212;SDS011;20477;51.390;8.102;2023-07-20T11:10:32;2.80;;;1.35;;
34212;SDS011;20477;51.390;8.102;2023-07-20T11:13:15;1.73;;;1.63;;
34212;SDS011;20477;51.390;8.102;2023-07-20T11:15:48;2.47;;;1.95;;
34212;SDS011;20477;51.390;8.102;2023-07-20T11:18:30;3.45;;;1.52;;
34212;SDS011;20477;51.390;8.102;2023-07-20T11:21:00;1.40;;;1.30;;
34212;SDS011;20477;51.390;8.102;2023-07-20T11:23:29;1.45;;;1.25;;
34212;SDS011;20477;51.390;8.102;2023-07-20T11:25:59;1.60;;;1.00;;
34212;SDS011;20477;51.390;8.102;2023-07-20T11:28:29;3.42;;;0.90;;
34212;SDS011;20477;51.390;8.102;2023-07-20T11:30:57;1.48;;;0.98;;
34212;SDS011;20477;51.390;8.102;2023-07-20T11:33:26;3.38;;;1.20;;
34212;SDS011;20477;51.390;8.102;2023-07-20T11:35:55;2.70;;;1.00;;
34212;SDS011;20477;51.390;8.102;2023-07-20T11:38:24;1.90;;;0.85;;
34212;SDS011;20477;51.390;8.102;2023-07-20T11:40:52;3.83;;;1.00;;
34212;SDS011;20477;51.390;8.102;2023-07-20T11:43:20;1.30;;;0.80;;
34212;SDS011;20477;51.390;8.102;2023-07-20T11:45:49;1.35;;;1.05;;
34212;SDS011;20477;51.390;8.102;2023-07-20T11:48:17;3.60;;;0.70;;
34212;SDS011;20477;51.390;8.102;2023-07-20T11:50:46;0.88;;;0.75;;
34212;SDS011;20477;51.390;8.102;2023-07-20T11:53:16;0.90;;;0.70;;
34212;SDS011;20477;51.390;8.102;2023-07-20T11:55:45;1.10;;;0.88;;
34212;SDS011;20477;51.390;8.102;2023-07-20T11:58:13;2.00;;;0.80;;
34212;SDS011;20477;51.390;8.102;2023-07-20T12:00:44;1.83;;;1.02;;
34212;SDS011;20477;51.390;8.102;2023-07-20T12:03:12;1.50;;;1.00;;
34212;SDS011;20477;51.390;8.102;2023-07-20T12:05:40;2.20;;;0.90;;
34212;SDS011;20477;51.390;8.102;2023-07-20T12:08:28;0.73;;;0.73;;
34212;SDS011;20477;51.390;8.102;2023-07-20T12:10:56;1.55;;;0.85;;
34212;SDS011;20477;51.390;8.102;2023-07-20T12:13:34;5.95;;;0.98;;
34212;SDS011;20477;51.390;8.102;2023-07-20T12:16:08;0.68;;;0.68;;
34212;SDS011;20477;51.390;8.102;2023-07-20T12:18:39;2.30;;;0.80;;
34212;SDS011;20477;51.390;8.102;2023-07-20T12:21:07;1.50;;;0.70;;
34212;SDS011;20477;51.390;8.102;2023-07-20T12:23:39;8.05;;;0.80;;
34212;SDS011;20477;51.390;8.102;2023-07-20T12:26:09;0.98;;;0.90;;
34212;SDS011;20477;51.390;8.102;2023-07-20T12:28:41;5.35;;;0.63;;
34212;SDS011;20477;51.390;8.102;2023-07-20T12:31:09;3.80;;;1.00;;
34212;SDS011;20477;51.390;8.102;2023-07-20T12:33:40;4.22;;;0.77;;
34212;SDS011;20477;51.390;8.102;2023-07-20T12:36:08;1.38;;;0.80;;
34212;SDS011;20477;51.390;8.102;2023-07-20T12:38:39;1.60;;;0.77;;
34212;SDS011;20477;51.390;8.102;2023-07-20T12:41:09;3.67;;;0.70;;
34212;SDS011;20477;51.390;8.102;2023-07-20T12:43:39;1.90;;;0.90;;
34212;SDS011;20477;51.390;8.102;2023-07-20T12:46:08;1.77;;;0.82;;
34212;SDS011;20477;51.390;8.102;2023-07-20T12:48:36;1.48;;;0.65;;
34212;SDS011;20477;51.390;8.102;2023-07-20T12:51:06;2.55;;;0.63;;
34212;SDS011;20477;51.390;8.102;2023-07-20T12:53:35;2.03;;;0.73;;
34212;SDS011;20477;51.390;8.102;2023-07-20T12:56:04;0.88;;;0.63;;
34212;SDS011;20477;51.390;8.102;2023-07-20T12:58:35;1.00;;;0.47;;
34212;SDS011;20477;51.390;8.102;2023-07-20T13:01:04;1.38;;;0.70;;
34212;SDS011;20477;51.390;8.102;2023-07-20T13:03:32;1.23;;;0.63;;
34212;SDS011;20477;51.390;8.102;2023-07-20T13:06:01;3.63;;;1.00;;
34212;SDS011;20477;51.390;8.102;2023-07-20T13:08:32;0.68;;;0.68;;
34212;SDS011;20477;51.390;8.102;2023-07-20T13:11:00;4.32;;;0.60;;
34212;SDS011;20477;51.390;8.102;2023-07-20T13:13:30;2.08;;;0.73;;
34212;SDS011;20477;51.390;8.102;2023-07-20T13:16:02;2.28;;;1.23;;
34212;SDS011;20477;51.390;8.102;2023-07-20T13:18:30;2.97;;;0.70;;
34212;SDS011;20477;51.390;8.102;2023-07-20T13:20:58;1.90;;;1.00;;
34212;SDS011;20477;51.390;8.102;2023-07-20T13:23:26;1.15;;;0.70;;
34212;SDS011;20477;51.390;8.102;2023-07-20T13:25:54;2.28;;;1.13;;
34212;SDS011;20477;51.390;8.102;2023-07-20T13:28:22;0.90;;;0.80;;
34212;SDS011;20477;51.390;8.102;2023-07-20T13:30:52;1.10;;;1.00;;
34212;SDS011;20477;51.390;8.102;2023-07-20T13:33:20;1.20;;;1.10;;
34212;SDS011;20477;51.390;8.102;2023-07-20T13:35:49;0.80;;;0.80;;
34212;SDS011;20477;51.390;8.102;2023-07-20T13:38:17;3.08;;;0.93;;
34212;SDS011;20477;51.390;8.102;2023-07-20T13:40:45;1.20;;;0.90;;
34212;SDS011;20477;51.390;8.102;2023-07-20T13:43:13;1.15;;;0.77;;
34212;SDS011;20477;51.390;8.102;2023-07-20T13:45:41;5.18;;;1.23;;
34212;SDS011;20477;51.390;8.102;2023-07-20T13:48:11;1.52;;;0.80;;
34212;SDS011;20477;51.390;8.102;2023-07-20T13:50:43;1.15;;;0.60;;
34212;SDS011;20477;51.390;8.102;2023-07-20T13:53:26;1.42;;;0.70;;
34212;SDS011;20477;51.390;8.102;2023-07-20T13:55:58;1.58;;;0.65;;
34212;SDS011;20477;51.390;8.102;2023-07-20T13:58:29;1.20;;;0.70;;
34212;SDS011;20477;51.390;8.102;2023-07-20T14:00:57;0.82;;;0.75;;
34212;SDS011;20477;51.390;8.102;2023-07-20T14:03:27;2.20;;;0.90;;
34212;SDS011;20477;51.390;8.102;2023-07-20T14:05:55;1.63;;;1.00;;
34212;SDS011;20477;51.390;8.102;2023-07-20T14:08:26;1.85;;;1.05;;
34212;SDS011;20477;51.390;8.102;2023-07-20T14:10:56;5.18;;;1.00;;
34212;SDS011;20477;51.390;8.102;2023-07-20T14:13:27;2.45;;;0.70;;
34212;SDS011;20477;51.390;8.102;2023-07-20T14:16:12;0.90;;;0.80;;
34212;SDS011;20477;51.390;8.102;2023-07-20T14:18:42;2.53;;;0.77;;
34212;SDS011;20477;51.390;8.102;2023-07-20T14:21:15;2.58;;;1.00;;
34212;SDS011;20477;51.390;8.102;2023-07-20T14:23:44;2.63;;;1.00;;
34212;SDS011;20477;51.390;8.102;2023-07-20T14:26:13;1.65;;;0.85;;
34212;SDS011;20477;51.390;8.102;2023-07-20T14:28:42;1.73;;;0.90;;
34212;SDS011;20477;51.390;8.102;2023-07-20T14:31:10;2.00;;;0.88;;
34212;SDS011;20477;51.390;8.102;2023-07-20T14:33:38;2.42;;;0.93;;
34212;SDS011;20477;51.390;8.102;2023-07-20T14:36:08;2.85;;;0.70;;
34212;SDS011;20477;51.390;8.102;2023-07-20T14:38:37;2.80;;;0.68;;
34212;SDS011;20477;51.390;8.102;2023-07-20T14:41:06;1.73;;;0.88;;
34212;SDS011;20477;51.390;8.102;2023-07-20T14:43:35;5.53;;;0.90;;
34212;SDS011;20477;51.390;8.102;2023-07-20T14:46:03;1.17;;;0.75;;
34212;SDS011;20477;51.390;8.102;2023-07-20T14:48:32;1.10;;;0.68;;
34212;SDS011;20477;51.390;8.102;2023-07-20T14:51:00;6.38;;;1.00;;
34212;SDS011;20477;51.390;8.102;2023-07-20T14:53:32;2.38;;;0.82;;
34212;SDS011;20477;51.390;8.102;2023-07-20T14:56:02;2.95;;;0.93;;